createdAt,value
2023-03-22T00:01:24.179Z,13.71
2023-03-22T00:03:53.424Z,13.72
2023-03-22T00:06:21.385Z,13.79
2023-03-22T00:08:53.342Z,13.47
2023-03-22T00:11:24.201Z,13.54
2023-03-22T00:13:52.515Z,13.78
2023-03-22T00:16:21.207Z,13.89
2023-03-22T00:18:48.793Z,14.02
2023-03-22T00:21:18.299Z,13.69
2023-03-22T00:23:46.484Z,13.96
2023-03-22T00:26:15.501Z,13.76
2023-03-22T00:28:43.338Z,13.27
2023-03-22T00:31:12.156Z,13.34
2023-03-22T00:33:39.627Z,13.74
2023-03-22T00:36:11.993Z,13.27
2023-03-22T00:38:42.806Z,13.34
2023-03-22T00:41:17.152Z,13.62
2023-03-22T00:43:45.659Z,13.66
2023-03-22T00:46:14.431Z,13.48
2023-03-22T00:48:42.344Z,13.43
2023-03-22T00:51:10.907Z,13.42
2023-03-22T00:53:41.221Z,13.53
2023-03-22T00:56:13.864Z,13.40
2023-03-22T00:58:42.141Z,13.17
2023-03-22T01:01:13.573Z,13.40
2023-03-22T01:03:42.975Z,13.13
2023-03-22T01:06:11.751Z,13.01
2023-03-22T01:08:39.565Z,13.11
2023-03-22T01:11:09.012Z,13.33
2023-03-22T01:13:38.286Z,13.56
2023-03-22T01:16:10.190Z,13.38
2023-03-22T01:18:37.792Z,13.09
2023-03-22T01:21:05.928Z,13.38
2023-03-22T01:23:33.532Z,13.37
2023-03-22T01:26:01.334Z,13.57
2023-03-22T01:28:29.617Z,13.41
2023-03-22T01:30:57.631Z,13.37
2023-03-22T01:33:25.174Z,13.44
2023-03-22T01:35:52.679Z,13.54
2023-03-22T01:38:20.446Z,13.46
2023-03-22T01:40:47.943Z,13.51
2023-03-22T01:43:17.815Z,13.69
2023-03-22T01:45:52.129Z,13.63
2023-03-22T01:48:33.615Z,13.57
2023-03-22T01:51:21.238Z,13.51
2023-03-22T01:54:03.884Z,13.40
2023-03-22T01:56:35.711Z,13.47
2023-03-22T01:59:04.833Z,13.59
2023-03-22T02:01:33.929Z,13.43
2023-03-22T02:04:13.365Z,13.51
2023-03-22T02:06:40.900Z,13.32
2023-03-22T02:09:11.139Z,13.49
2023-03-22T02:11:42.755Z,13.41
2023-03-22T02:14:27.436Z,13.36
2023-03-22T02:17:07.161Z,13.46
2023-03-22T02:19:52.969Z,13.62
2023-03-22T02:22:29.214Z,13.65
2023-03-22T02:25:24.620Z,13.91
2023-03-22T02:28:36.382Z,13.79
2023-03-22T02:31:18.527Z,14.03
2023-03-22T02:34:33.979Z,13.78
2023-03-22T02:37:28.048Z,14.04
2023-03-22T02:40:09.885Z,14.26
2023-03-22T02:42:58.726Z,14.27
2023-03-22T02:45:35.400Z,14.34
2023-03-22T02:48:11.425Z,14.03
2023-03-22T02:50:44.296Z,13.96
2023-03-22T02:53:33.085Z,13.92
2023-03-22T02:56:26.189Z,13.76
2023-03-22T02:59:00.961Z,13.76
2023-03-22T03:01:33.555Z,13.42
2023-03-22T03:04:04.972Z,13.46
2023-03-22T03:06:38.914Z,13.78
2023-03-22T03:09:07.824Z,14.16
2023-03-22T03:11:35.370Z,13.66
2023-03-22T03:14:02.904Z,13.78
2023-03-22T03:16:36.625Z,13.37
2023-03-22T03:19:23.410Z,13.62
2023-03-22T03:21:50.892Z,13.67
2023-03-22T03:24:46.074Z,13.57
2023-03-22T03:27:27.348Z,13.48
2023-03-22T03:30:24.859Z,13.53
2023-03-22T03:33:00.748Z,13.51
2023-03-22T03:35:37.707Z,13.51
2023-03-22T03:38:10.618Z,13.53
2023-03-22T03:40:43.101Z,13.50
2023-03-22T03:43:11.911Z,13.74
2023-03-22T03:45:40.827Z,13.50
2023-03-22T03:48:19.189Z,13.60
2023-03-22T03:50:50.245Z,13.43
2023-03-22T03:53:18.036Z,13.52
2023-03-22T03:55:46.230Z,13.49
2023-03-22T03:58:13.781Z,13.41
2023-03-22T04:00:41.488Z,13.63
2023-03-22T04:03:09.375Z,13.47
2023-03-22T04:05:36.888Z,13.29
2023-03-22T04:08:04.460Z,13.69
2023-03-22T04:10:32.346Z,13.62
2023-03-22T04:12:59.819Z,13.60
2023-03-22T04:15:27.415Z,13.35
2023-03-22T04:17:54.936Z,13.68
2023-03-22T04:20:22.641Z,13.36
2023-03-22T04:22:50.186Z,13.29
2023-03-22T04:25:19.027Z,13.73
2023-03-22T04:27:50.990Z,13.59
2023-03-22T04:30:20.394Z,13.76
2023-03-22T04:32:48.468Z,13.41
2023-03-22T04:35:17.258Z,13.62
2023-03-22T04:37:45.679Z,13.54
2023-03-22T04:40:16.818Z,13.15
2023-03-22T04:42:45.562Z,13.38
2023-03-22T04:45:14.828Z,13.39
2023-03-22T04:47:42.461Z,13.45
2023-03-22T04:50:10.284Z,13.63
2023-03-22T04:52:37.869Z,13.39
2023-03-22T04:55:05.877Z,13.57
2023-03-22T04:57:35.160Z,13.48
2023-03-22T05:00:06.585Z,13.39
2023-03-22T05:02:34.154Z,13.46
2023-03-22T05:05:01.696Z,13.51
2023-03-22T05:07:29.504Z,13.57
2023-03-22T05:09:56.968Z,13.61
2023-03-22T05:12:24.509Z,13.33
2023-03-22T05:14:52.120Z,13.59
2023-03-22T05:17:19.618Z,13.39
2023-03-22T05:19:47.716Z,13.54
2023-03-22T05:22:15.371Z,13.14
2023-03-22T05:24:42.865Z,13.32
2023-03-22T05:27:10.856Z,13.36
2023-03-22T05:29:38.471Z,13.47
2023-03-22T05:32:06.253Z,13.24
2023-03-22T05:34:36.406Z,13.48
2023-03-22T05:37:04.406Z,13.45
2023-03-22T05:39:32.011Z,13.61
2023-03-22T05:41:59.564Z,13.64
2023-03-22T05:44:27.180Z,13.57
2023-03-22T05:46:54.758Z,13.66
2023-03-22T05:49:22.339Z,13.69
2023-03-22T05:51:50.552Z,13.86
2023-03-22T05:54:18.026Z,13.45
2023-03-22T05:56:45.821Z,13.62
2023-03-22T05:59:13.347Z,13.48
2023-03-22T06:01:41.060Z,13.76
2023-03-22T06:04:08.588Z,13.80
2023-03-22T06:06:36.167Z,13.87
2023-03-22T06:09:15.981Z,13.59
2023-03-22T06:11:44.675Z,13.89
2023-03-22T06:14:12.344Z,14.17
2023-03-22T06:16:40.022Z,14.14
2023-03-22T06:19:07.584Z,13.92
2023-03-22T06:21:35.114Z,13.99
2023-03-22T06:24:02.701Z,13.90
2023-03-22T06:26:30.313Z,14.15
2023-03-22T06:28:57.937Z,13.96
2023-03-22T06:31:25.444Z,14.01
2023-03-22T06:33:54.846Z,13.89
2023-03-22T06:36:23.393Z,14.17
2023-03-22T06:38:51.142Z,14.02
2023-03-22T06:41:18.775Z,14.29
2023-03-22T06:43:46.320Z,14.21
2023-03-22T06:46:14.005Z,14.71
2023-03-22T06:48:41.631Z,14.71
2023-03-22T06:51:09.455Z,14.44
2023-03-22T06:53:37.244Z,14.62
2023-03-22T06:56:05.413Z,14.63
2023-03-22T06:58:33.049Z,14.51
2023-03-22T07:01:00.651Z,14.85
2023-03-22T07:03:28.213Z,14.16
2023-03-22T07:06:02.484Z,14.56
2023-03-22T07:08:30.276Z,14.56
2023-03-22T07:10:57.917Z,14.59
2023-03-22T07:13:25.558Z,14.48
2023-03-22T07:16:02.738Z,14.44
2023-03-22T07:18:31.007Z,14.58
2023-03-22T07:20:58.585Z,14.53
2023-03-22T07:23:26.483Z,14.58
2023-03-22T07:25:55.930Z,14.76
2023-03-22T07:28:23.612Z,14.55
2023-03-22T07:30:51.154Z,14.69
2023-03-22T07:33:18.728Z,14.47
2023-03-22T07:35:46.311Z,14.81
2023-03-22T07:38:14.084Z,14.74
2023-03-22T07:40:41.932Z,14.90
2023-03-22T07:43:12.005Z,14.86
2023-03-22T07:45:40.978Z,14.75
2023-03-22T07:48:11.267Z,15.15
2023-03-22T07:50:39.430Z,14.86
2023-03-22T07:53:07.313Z,14.92
2023-03-22T07:55:34.921Z,15.50
2023-03-22T07:58:02.745Z,15.12
2023-03-22T08:00:30.665Z,15.06
2023-03-22T08:02:58.286Z,15.68
2023-03-22T08:05:26.521Z,15.44
2023-03-22T08:07:54.404Z,15.70
2023-03-22T08:10:21.974Z,15.31
2023-03-22T08:12:49.529Z,15.75
2023-03-22T08:15:17.179Z,15.42
2023-03-22T08:17:44.812Z,15.29
2023-03-22T08:20:13.487Z,15.48
2023-03-22T08:22:41.050Z,15.48
2023-03-22T08:25:08.832Z,15.09
2023-03-22T08:27:36.389Z,14.76
2023-03-22T08:30:05.688Z,15.19
2023-03-22T08:32:34.683Z,15.57
2023-03-22T08:35:02.207Z,15.58
2023-03-22T08:37:29.725Z,15.49
2023-03-22T08:39:57.268Z,15.47
2023-03-22T08:42:24.799Z,15.67
2023-03-22T08:44:52.575Z,15.28
2023-03-22T08:47:20.080Z,15.10
2023-03-22T08:49:47.811Z,14.91
2023-03-22T08:52:15.369Z,15.08
2023-03-22T08:54:42.899Z,14.81
2023-03-22T08:57:11.537Z,14.70
2023-03-22T08:59:39.018Z,15.03
2023-03-22T09:02:06.925Z,15.17
2023-03-22T09:04:34.785Z,15.29
2023-03-22T09:07:02.791Z,14.86
2023-03-22T09:09:30.292Z,15.05
2023-03-22T09:11:58.086Z,14.98
2023-03-22T09:14:25.672Z,15.15
2023-03-22T09:16:53.241Z,15.01
2023-03-22T09:19:20.821Z,14.76
2023-03-22T09:21:48.440Z,14.79
2023-03-22T09:24:16.010Z,14.27
2023-03-22T09:26:43.603Z,14.25
2023-03-22T09:29:11.524Z,14.17
2023-03-22T09:31:39.274Z,14.17
2023-03-22T09:34:06.977Z,14.11
2023-03-22T09:36:34.695Z,13.67
2023-03-22T09:39:07.229Z,13.71
2023-03-22T09:41:43.334Z,14.16
2023-03-22T09:44:23.254Z,14.67
2023-03-22T09:46:54.972Z,14.50
2023-03-22T09:49:27.937Z,14.37
2023-03-22T09:51:56.679Z,14.49
2023-03-22T09:54:36.212Z,14.37
2023-03-22T09:57:16.061Z,14.19
2023-03-22T10:00:21.459Z,14.11
2023-03-22T10:02:58.949Z,14.12
2023-03-22T10:05:48.389Z,14.17
2023-03-22T10:08:28.249Z,13.74
2023-03-22T10:10:55.902Z,14.40
2023-03-22T10:13:51.760Z,14.54
2023-03-22T10:16:33.123Z,14.52
2023-03-22T10:19:08.012Z,14.30
2023-03-22T10:21:36.831Z,14.42
2023-03-22T10:24:14.076Z,14.62
2023-03-22T10:26:45.945Z,13.93
2023-03-22T10:29:23.074Z,14.55
2023-03-22T10:31:50.999Z,14.45
2023-03-22T10:34:27.935Z,14.67
2023-03-22T10:36:57.007Z,14.50
2023-03-22T10:39:34.175Z,14.24
2023-03-22T10:42:05.792Z,14.45
2023-03-22T10:44:40.839Z,14.11
2023-03-22T10:47:11.291Z,14.37
2023-03-22T10:49:48.285Z,14.04
2023-03-22T10:52:24.842Z,14.19
2023-03-22T10:54:52.767Z,14.40
2023-03-22T10:57:20.334Z,14.52
2023-03-22T10:59:51.131Z,14.56
2023-03-22T11:02:23.481Z,14.93
2023-03-22T11:04:53.594Z,15.07
2023-03-22T11:07:33.242Z,14.87
2023-03-22T11:10:13.318Z,14.91
2023-03-22T11:12:46.352Z,14.98
2023-03-22T11:16:12.425Z,15.34
2023-03-22T11:18:42.728Z,15.01
2023-03-22T11:21:16.595Z,15.21
2023-03-22T11:24:09.602Z,14.91
2023-03-22T11:26:40.854Z,15.35
2023-03-22T11:29:13.809Z,15.07
2023-03-22T11:31:57.246Z,15.02
2023-03-22T11:34:28.243Z,15.32
2023-03-22T11:36:57.665Z,14.93
2023-03-22T11:39:28.346Z,15.20
2023-03-22T11:42:01.492Z,14.99
2023-03-22T11:44:35.506Z,14.67
2023-03-22T11:47:05.709Z,14.80
2023-03-22T11:49:46.392Z,15.00
2023-03-22T11:52:19.659Z,15.12
2023-03-22T11:54:48.973Z,15.39
2023-03-22T11:57:22.586Z,14.97
2023-03-22T11:59:50.108Z,14.70
2023-03-22T12:02:24.673Z,15.06
2023-03-22T12:05:00.741Z,14.50
2023-03-22T12:07:31.255Z,15.01
2023-03-22T12:10:38.635Z,14.75
2023-03-22T12:13:12.385Z,14.84
2023-03-22T12:15:48.295Z,14.75
2023-03-22T12:18:18.388Z,15.31
2023-03-22T12:20:55.545Z,14.80
2023-03-22T12:23:26.195Z,15.16
2023-03-22T12:26:11.676Z,15.12
2023-03-22T12:28:44.741Z,15.25
2023-03-22T12:31:21.661Z,15.02
2023-03-22T12:33:53.250Z,14.76
2023-03-22T12:36:28.084Z,15.09
2023-03-22T12:38:58.757Z,14.83
2023-03-22T12:41:33.157Z,14.90
2023-03-22T12:44:19.603Z,14.86
2023-03-22T12:46:50.932Z,15.43
2023-03-22T12:49:28.963Z,15.18
2023-03-22T12:52:07.430Z,15.08
2023-03-22T12:54:35.015Z,15.29
2023-03-22T12:57:03.122Z,15.32
2023-03-22T12:59:32.442Z,15.09
2023-03-22T13:02:05.269Z,15.16
2023-03-22T13:04:50.056Z,15.18
2023-03-22T13:07:34.299Z,15.00
2023-03-22T13:10:22.855Z,15.03
2023-03-22T13:13:26.636Z,15.12
2023-03-22T13:15:56.813Z,15.27
2023-03-22T13:18:33.570Z,15.45
2023-03-22T13:21:16.524Z,15.43
2023-03-22T13:24:11.609Z,15.39
2023-03-22T13:26:47.228Z,15.20
2023-03-22T13:29:26.593Z,15.26
2023-03-22T13:32:07.176Z,15.14
2023-03-22T13:34:46.805Z,15.49
2023-03-22T13:37:34.986Z,15.74
2023-03-22T13:40:13.495Z,15.82
2023-03-22T13:42:42.351Z,15.47
2023-03-22T13:45:31.501Z,15.54
2023-03-22T13:48:29.150Z,15.91
2023-03-22T13:50:58.268Z,15.96
2023-03-22T13:53:31.433Z,16.00
2023-03-22T13:56:04.689Z,15.73
2023-03-22T13:58:32.997Z,15.68
2023-03-22T14:01:01.028Z,15.77
2023-03-22T14:03:36.846Z,15.93
2023-03-22T14:06:11.957Z,15.84
2023-03-22T14:08:42.812Z,15.90
2023-03-22T14:11:45.046Z,15.71
2023-03-22T14:14:19.226Z,15.66
2023-03-22T14:16:55.896Z,15.64
2023-03-22T14:19:28.030Z,15.92
